createdAt,value
2022-10-10T00:00:25.168Z,10.30
2022-10-10T00:00:50.529Z,10.30
2022-10-10T00:01:13.431Z,10.30
2022-10-10T00:01:36.222Z,10.30
2022-10-10T00:01:59.000Z,10.30
2022-10-10T00:02:21.946Z,10.30
2022-10-10T00:02:44.697Z,10.30
2022-10-10T00:03:07.429Z,10.30
2022-10-10T00:03:30.689Z,10.40
2022-10-10T00:03:53.485Z,10.40
2022-10-10T00:04:16.285Z,10.40
2022-10-10T00:04:40.012Z,10.40
2022-10-10T00:05:02.745Z,10.40
2022-10-10T00:05:27.999Z,10.40
2022-10-10T00:05:50.733Z,10.40
2022-10-10T00:06:13.645Z,10.30
2022-10-10T00:06:36.322Z,10.40
2022-10-10T00:06:59.040Z,10.30
2022-10-10T00:07:24.316Z,10.30
2022-10-10T00:07:47.085Z,10.40
2022-10-10T00:08:09.815Z,10.30
2022-10-10T00:08:32.753Z,10.40
2022-10-10T00:08:55.514Z,10.30
2022-10-10T00:09:18.233Z,10.30
2022-10-10T00:09:40.954Z,10.30
2022-10-10T00:10:03.866Z,10.30
2022-10-10T00:10:26.668Z,10.30
2022-10-10T00:10:49.599Z,10.30
2022-10-10T00:11:12.450Z,10.30
2022-10-10T00:11:35.518Z,10.30
2022-10-10T00:11:58.273Z,10.30
2022-10-10T00:12:23.165Z,10.30
2022-10-10T00:12:46.125Z,10.30
2022-10-10T00:13:08.924Z,10.30
2022-10-10T00:13:31.689Z,10.30
2022-10-10T00:13:54.569Z,10.30
2022-10-10T00:14:17.405Z,10.30
2022-10-10T00:14:42.553Z,10.30
2022-10-10T00:15:05.978Z,10.30
2022-10-10T00:15:28.870Z,10.30
2022-10-10T00:15:53.108Z,10.30
2022-10-10T00:16:15.848Z,10.30
2022-10-10T00:16:38.603Z,10.30
2022-10-10T00:17:01.280Z,10.30
2022-10-10T00:17:24.011Z,10.30
2022-10-10T00:17:46.766Z,10.30
2022-10-10T00:18:09.521Z,10.30
2022-10-10T00:18:32.235Z,10.30
2022-10-10T00:18:58.068Z,10.30
2022-10-10T00:19:20.787Z,10.30
2022-10-10T00:19:43.610Z,10.30
2022-10-10T00:20:07.574Z,10.30
2022-10-10T00:20:30.456Z,10.30
2022-10-10T00:20:56.167Z,10.30
2022-10-10T00:21:19.112Z,10.30
2022-10-10T00:21:42.366Z,10.30
2022-10-10T00:22:05.190Z,10.30
2022-10-10T00:22:30.197Z,10.30
2022-10-10T00:22:53.337Z,10.30
2022-10-10T00:23:16.378Z,10.30
2022-10-10T00:23:39.221Z,10.30
2022-10-10T00:24:01.988Z,10.30
2022-10-10T00:24:24.807Z,10.30
2022-10-10T00:24:47.533Z,10.30
2022-10-10T00:25:10.412Z,10.30
2022-10-10T00:25:33.978Z,10.30
2022-10-10T00:25:56.749Z,10.30
2022-10-10T00:26:19.677Z,10.30
2022-10-10T00:26:44.813Z,10.30
2022-10-10T00:27:07.517Z,10.30
2022-10-10T00:27:30.277Z,10.30
2022-10-10T00:27:52.999Z,10.40
2022-10-10T00:28:15.793Z,10.40
2022-10-10T00:28:39.094Z,10.30
2022-10-10T00:29:01.999Z,10.30
2022-10-10T00:29:24.790Z,10.30
2022-10-10T00:29:47.472Z,10.30
2022-10-10T00:30:11.542Z,10.30
2022-10-10T00:30:34.266Z,10.30
2022-10-10T00:30:58.578Z,10.30
2022-10-10T00:31:21.442Z,10.30
2022-10-10T00:31:44.204Z,10.30
2022-10-10T00:32:06.996Z,10.30
2022-10-10T00:32:29.896Z,10.30
2022-10-10T00:32:55.143Z,10.30
2022-10-10T00:33:17.937Z,10.30
2022-10-10T00:33:40.990Z,10.20
2022-10-10T00:34:06.956Z,10.30
2022-10-10T00:34:29.713Z,10.30
2022-10-10T00:34:52.629Z,10.20
2022-10-10T00:35:15.415Z,10.30
2022-10-10T00:35:38.127Z,10.20
2022-10-10T00:36:01.172Z,10.20
2022-10-10T00:36:23.852Z,10.20
2022-10-10T00:36:46.567Z,10.30
2022-10-10T00:37:09.307Z,10.30
2022-10-10T00:37:32.112Z,10.30
2022-10-10T00:37:54.839Z,10.20
2022-10-10T00:38:17.512Z,10.30
2022-10-10T00:38:40.313Z,10.20
2022-10-10T00:39:03.087Z,10.30
2022-10-10T00:39:25.707Z,10.20
2022-10-10T00:39:48.667Z,10.30
2022-10-10T00:40:11.608Z,10.30
2022-10-10T00:40:34.499Z,10.20
2022-10-10T00:40:57.458Z,10.20
2022-10-10T00:41:22.404Z,10.20
2022-10-10T00:41:45.139Z,10.20
2022-10-10T00:42:07.817Z,10.20
2022-10-10T00:42:30.724Z,10.20
2022-10-10T00:42:53.894Z,10.20
2022-10-10T00:43:16.927Z,10.20
2022-10-10T00:43:39.778Z,10.20
2022-10-10T00:44:04.328Z,10.10
2022-10-10T00:44:27.769Z,10.10
2022-10-10T00:45:25.876Z,10.10
2022-10-10T00:45:48.973Z,10.10
2022-10-10T00:46:16.114Z,10.10
2022-10-10T00:46:39.011Z,10.10
2022-10-10T00:47:01.671Z,10.10
2022-10-10T00:47:24.569Z,10.10
2022-10-10T00:47:48.173Z,10.10
2022-10-10T00:48:12.416Z,10.10
2022-10-10T00:48:40.255Z,10.10
2022-10-10T00:49:03.532Z,10.10
2022-10-10T00:49:27.167Z,10.00
2022-10-10T00:49:52.674Z,10.10
2022-10-10T00:50:15.483Z,10.10
2022-10-10T00:50:40.314Z,10.10
2022-10-10T00:51:05.482Z,10.10
2022-10-10T00:51:28.271Z,10.10
2022-10-10T00:51:52.327Z,10.00
2022-10-10T00:52:15.177Z,10.00
2022-10-10T00:52:38.118Z,10.00
2022-10-10T00:53:04.371Z,10.00
2022-10-10T00:53:29.010Z,10.10
2022-10-10T00:53:53.387Z,10.00
2022-10-10T00:54:16.814Z,10.00
2022-10-10T00:54:42.097Z,10.00
2022-10-10T00:55:05.861Z,10.10
2022-10-10T00:55:28.567Z,10.00
2022-10-10T00:55:51.281Z,10.00
2022-10-10T00:56:14.086Z,10.00
2022-10-10T00:56:40.010Z,10.00
2022-10-10T00:57:04.481Z,10.00
2022-10-10T00:57:27.196Z,10.00
2022-10-10T00:57:52.637Z,10.00
2022-10-10T00:58:16.092Z,10.00
2022-10-10T00:58:40.818Z,10.00
2022-10-10T00:59:05.113Z,10.00
2022-10-10T00:59:28.414Z,10.00
2022-10-10T00:59:51.194Z,10.00
2022-10-10T01:00:14.354Z,10.00
2022-10-10T01:00:37.642Z,10.00
2022-10-10T01:01:00.530Z,10.00
2022-10-10T01:01:24.786Z,10.00
2022-10-10T01:01:47.676Z,10.00
2022-10-10T01:02:10.412Z,10.00
2022-10-10T01:02:33.212Z,10.00
2022-10-10T01:02:55.888Z,10.00
2022-10-10T01:03:18.593Z,10.00
2022-10-10T01:03:44.182Z,10.00
2022-10-10T01:04:06.931Z,10.00
2022-10-10T01:04:33.941Z,10.10
2022-10-10T01:04:56.771Z,10.10
2022-10-10T01:05:19.652Z,10.10
2022-10-10T01:05:43.555Z,10.10
2022-10-10T01:06:06.735Z,10.10
2022-10-10T01:06:31.852Z,10.10
2022-10-10T01:06:54.571Z,10.10
2022-10-10T01:07:19.038Z,10.10
2022-10-10T01:07:41.929Z,10.10
2022-10-10T01:08:05.063Z,10.10
2022-10-10T01:08:27.746Z,10.10
2022-10-10T01:08:50.602Z,10.10
2022-10-10T01:09:13.262Z,10.10
2022-10-10T01:09:37.032Z,10.10
2022-10-10T01:10:01.005Z,10.10
2022-10-10T01:10:24.829Z,10.20
2022-10-10T01:10:58.591Z,10.20
2022-10-10T01:11:35.747Z,10.10
2022-10-10T01:12:02.401Z,10.20
2022-10-10T01:12:27.296Z,10.20
2022-10-10T01:12:56.552Z,10.20
2022-10-10T01:13:25.491Z,10.20
2022-10-10T01:13:52.551Z,10.20
2022-10-10T01:14:22.108Z,10.20
2022-10-10T01:14:47.710Z,10.20
2022-10-10T01:15:13.625Z,10.30
2022-10-10T01:15:43.038Z,10.30
2022-10-10T01:16:07.760Z,10.30
2022-10-10T01:16:34.880Z,10.30
2022-10-10T01:17:01.138Z,10.30
2022-10-10T01:17:26.744Z,10.30
2022-10-10T01:17:53.601Z,10.30
2022-10-10T01:18:21.450Z,10.30
2022-10-10T01:18:47.361Z,10.30
2022-10-10T01:19:20.645Z,10.30
2022-10-10T01:20:05.835Z,10.30
2022-10-10T01:20:50.573Z,10.30
2022-10-10T01:21:27.128Z,10.30
2022-10-10T01:21:52.651Z,10.30
2022-10-10T01:22:22.281Z,10.30
2022-10-10T01:22:50.827Z,10.30
2022-10-10T01:23:37.098Z,10.40
2022-10-10T01:24:33.824Z,10.40
2022-10-10T01:24:58.559Z,10.40
2022-10-10T01:25:26.905Z,10.40
2022-10-10T01:25:58.145Z,10.40
2022-10-10T01:26:49.171Z,10.40
2022-10-10T01:27:31.217Z,10.40
2022-10-10T01:27:57.490Z,10.40
2022-10-10T01:28:29.634Z,10.40
2022-10-10T01:28:58.544Z,10.40
2022-10-10T01:29:23.880Z,10.40
2022-10-10T01:29:50.253Z,10.50
2022-10-10T01:30:14.380Z,10.50
2022-10-10T01:30:37.135Z,10.50
2022-10-10T01:30:59.960Z,10.50
2022-10-10T01:31:23.600Z,10.40
2022-10-10T01:31:47.149Z,10.50
2022-10-10T01:32:12.663Z,10.40
2022-10-10T01:32:39.871Z,10.50
2022-10-10T01:33:05.611Z,10.40
2022-10-10T01:33:29.921Z,10.40
2022-10-10T01:33:55.300Z,10.40
2022-10-10T01:34:20.792Z,10.50
2022-10-10T01:34:49.705Z,10.40
2022-10-10T01:35:37.724Z,10.40
2022-10-10T01:36:04.236Z,10.40
2022-10-10T01:36:30.067Z,10.50
2022-10-10T01:36:55.935Z,10.40
2022-10-10T01:37:20.135Z,10.50
2022-10-10T01:37:47.681Z,10.40
2022-10-10T01:38:16.365Z,10.40
2022-10-10T01:38:41.919Z,10.50
2022-10-10T01:39:07.627Z,10.40
2022-10-10T01:39:35.037Z,10.40
2022-10-10T01:40:00.320Z,10.40
2022-10-10T01:40:27.385Z,10.40
2022-10-10T01:40:52.566Z,10.40
2022-10-10T01:41:16.343Z,10.40
2022-10-10T01:41:41.465Z,10.40
2022-10-10T01:42:07.100Z,10.40
2022-10-10T01:42:31.831Z,10.40
2022-10-10T01:42:55.680Z,10.40
2022-10-10T01:43:18.547Z,10.40
2022-10-10T01:43:42.980Z,10.40
2022-10-10T01:44:05.665Z,10.40
2022-10-10T01:44:28.415Z,10.40
2022-10-10T01:44:54.241Z,10.40
2022-10-10T01:45:16.978Z,10.40
2022-10-10T01:45:44.504Z,10.40
2022-10-10T01:46:10.950Z,10.40
2022-10-10T01:46:33.769Z,10.40
2022-10-10T01:46:56.510Z,10.40
2022-10-10T01:47:19.923Z,10.40
2022-10-10T01:47:44.861Z,10.40
2022-10-10T01:48:07.576Z,10.40
2022-10-10T01:48:31.430Z,10.40
2022-10-10T01:48:56.091Z,10.40
2022-10-10T01:49:18.878Z,10.40
2022-10-10T01:49:44.405Z,10.50
2022-10-10T01:50:09.965Z,10.50
2022-10-10T01:50:33.960Z,10.50
2022-10-10T01:51:09.167Z,10.50
2022-10-10T01:51:44.626Z,10.50
2022-10-10T01:52:14.560Z,10.40
2022-10-10T01:52:42.245Z,10.40
2022-10-10T01:53:13.025Z,10.40
2022-10-10T01:53:41.810Z,10.50
2022-10-10T01:54:07.362Z,10.50
2022-10-10T01:54:36.365Z,10.50
2022-10-10T01:55:19.725Z,10.50
2022-10-10T01:55:52.845Z,10.50
2022-10-10T01:56:19.859Z,10.50
2022-10-10T01:56:45.075Z,10.40
2022-10-10T01:57:19.843Z,10.50
2022-10-10T01:57:46.343Z,10.50
2022-10-10T01:58:18.159Z,10.50
2022-10-10T01:59:01.846Z,10.50
2022-10-10T01:59:31.544Z,10.50
2022-10-10T02:00:00.711Z,10.50
2022-10-10T02:00:23.437Z,10.50
2022-10-10T02:00:48.850Z,10.50
2022-10-10T02:01:14.345Z,10.60
2022-10-10T02:01:40.726Z,10.60
2022-10-10T02:02:05.767Z,10.60
2022-10-10T02:02:35.210Z,10.60
2022-10-10T02:02:59.045Z,10.60
2022-10-10T02:03:23.925Z,10.60
2022-10-10T02:03:47.916Z,10.60
2022-10-10T02:04:14.598Z,10.60
2022-10-10T02:04:41.035Z,10.50
2022-10-10T02:05:06.546Z,10.60
2022-10-10T02:05:32.466Z,10.60
2022-10-10T02:05:57.141Z,10.60
2022-10-10T02:06:21.140Z,10.60
2022-10-10T02:06:47.063Z,10.60
2022-10-10T02:07:11.482Z,10.60
2022-10-10T02:07:37.940Z,10.60
2022-10-10T02:08:03.269Z,10.60
2022-10-10T02:08:28.490Z,10.60
2022-10-10T02:08:52.495Z,10.60
2022-10-10T02:09:16.875Z,10.60
2022-10-10T02:09:41.200Z,10.60
2022-10-10T02:10:04.681Z,10.60
2022-10-10T02:10:30.060Z,10.60
2022-10-10T02:10:56.017Z,10.60
2022-10-10T02:11:18.954Z,10.60
2022-10-10T02:11:41.674Z,10.60
2022-10-10T02:12:04.622Z,10.60
2022-10-10T02:12:27.698Z,10.60
2022-10-10T02:12:50.574Z,10.60
2022-10-10T02:13:13.478Z,10.60
2022-10-10T02:13:39.314Z,10.60
2022-10-10T02:14:07.730Z,10.60
2022-10-10T02:14:32.257Z,10.50
2022-10-10T02:14:55.742Z,10.50
2022-10-10T02:15:20.019Z,10.60
2022-10-10T02:15:45.318Z,10.50
2022-10-10T02:16:12.508Z,10.50
2022-10-10T02:16:37.613Z,10.50
2022-10-10T02:17:00.904Z,10.50
2022-10-10T02:17:23.718Z,10.50
2022-10-10T02:17:46.944Z,10.50
2022-10-10T02:18:09.814Z,10.50
2022-10-10T02:18:33.145Z,10.50
2022-10-10T02:18:56.015Z,10.50
2022-10-10T02:19:20.399Z,10.60
2022-10-10T02:19:44.994Z,10.60
2022-10-10T02:20:09.160Z,10.60
2022-10-10T02:20:31.876Z,10.60
2022-10-10T02:20:54.540Z,10.60
2022-10-10T02:21:19.460Z,10.60
2022-10-10T02:21:42.225Z,10.60
2022-10-10T02:22:04.917Z,10.70
2022-10-10T02:22:27.749Z,10.60
2022-10-10T02:22:52.036Z,10.60
2022-10-10T02:23:16.663Z,10.60
2022-10-10T02:23:39.853Z,10.60
2022-10-10T02:24:04.090Z,10.60
2022-10-10T02:24:26.771Z,10.70
2022-10-10T02:24:49.684Z,10.60
2022-10-10T02:25:12.509Z,10.70
2022-10-10T02:25:37.020Z,10.60
2022-10-10T02:25:59.780Z,10.60
2022-10-10T02:26:22.578Z,10.70
2022-10-10T02:26:47.055Z,10.60
2022-10-10T02:27:13.601Z,10.60
2022-10-10T02:27:38.306Z,10.60
2022-10-10T02:28:06.819Z,10.60
2022-10-10T02:28:32.053Z,10.60
2022-10-10T02:28:56.377Z,10.60
2022-10-10T02:29:21.664Z,10.60
2022-10-10T02:29:44.378Z,10.60
2022-10-10T02:30:08.977Z,10.60
2022-10-10T02:30:32.158Z,10.60
2022-10-10T02:30:56.737Z,10.60
2022-10-10T02:31:24.892Z,10.60
2022-10-10T02:31:51.070Z,10.60
2022-10-10T02:32:16.692Z,10.60
2022-10-10T02:32:41.645Z,10.60
2022-10-10T02:33:04.732Z,10.60
2022-10-10T02:33:30.740Z,10.60
2022-10-10T02:33:56.659Z,10.60
2022-10-10T02:34:20.629Z,10.60
2022-10-10T02:34:44.991Z,10.60
2022-10-10T02:35:09.765Z,10.60
2022-10-10T02:35:33.803Z,10.60
2022-10-10T02:35:56.584Z,10.60
2022-10-10T02:36:19.361Z,10.50
2022-10-10T02:36:42.095Z,10.50
2022-10-10T02:37:06.581Z,10.50
2022-10-10T02:37:29.445Z,10.50
2022-10-10T02:37:52.726Z,10.50
2022-10-10T02:38:15.525Z,10.50
2022-10-10T02:38:38.250Z,10.50
2022-10-10T02:39:00.970Z,10.60
2022-10-10T02:39:25.240Z,10.50
2022-10-10T02:39:49.180Z,10.60
2022-10-10T02:40:12.802Z,10.60
2022-10-10T02:40:35.681Z,10.60
2022-10-10T02:40:58.479Z,10.60
2022-10-10T02:41:24.009Z,10.60
2022-10-10T02:41:46.872Z,10.60
2022-10-10T02:42:09.830Z,10.60
2022-10-10T02:42:32.618Z,10.60
2022-10-10T02:42:55.322Z,10.60
2022-10-10T02:43:18.144Z,10.50
2022-10-10T02:43:40.956Z,10.50
2022-10-10T02:44:03.646Z,10.50
2022-10-10T02:44:27.991Z,10.60
2022-10-10T02:44:51.011Z,10.60
2022-10-10T02:45:13.881Z,10.60
2022-10-10T02:45:36.566Z,10.60
2022-10-10T02:46:02.986Z,10.60
2022-10-10T02:46:25.742Z,10.60
2022-10-10T02:46:50.827Z,10.50
2022-10-10T02:47:13.520Z,10.50
2022-10-10T02:47:36.284Z,10.50
2022-10-10T02:47:59.202Z,10.50
2022-10-10T02:48:21.932Z,10.60
2022-10-10T02:48:44.716Z,10.50
2022-10-10T02:49:08.319Z,10.50
2022-10-10T02:49:32.905Z,10.60
2022-10-10T02:49:56.000Z,10.50
2022-10-10T02:50:18.783Z,10.60
2022-10-10T02:50:43.767Z,10.60
2022-10-10T02:51:06.770Z,10.50
2022-10-10T02:51:30.516Z,10.60
2022-10-10T02:51:53.517Z,10.50
2022-10-10T02:52:16.288Z,10.60
2022-10-10T02:52:39.059Z,10.60
2022-10-10T02:53:01.822Z,10.60
2022-10-10T02:53:27.083Z,10.60
2022-10-10T02:53:49.824Z,10.60
2022-10-10T02:54:12.613Z,10.60
2022-10-10T02:54:35.439Z,10.60
2022-10-10T02:54:58.388Z,10.60
2022-10-10T02:55:21.140Z,10.60
2022-10-10T02:55:43.874Z,10.60
2022-10-10T02:56:06.992Z,10.60
2022-10-10T02:56:29.875Z,10.60
2022-10-10T02:56:52.647Z,10.60
2022-10-10T02:57:17.535Z,10.60
2022-10-10T02:57:40.552Z,10.60
2022-10-10T02:58:03.382Z,10.60
2022-10-10T02:58:26.114Z,10.60
2022-10-10T02:58:48.818Z,10.60
2022-10-10T02:59:11.520Z,10.60
2022-10-10T02:59:38.792Z,10.60
2022-10-10T03:00:02.096Z,10.60
2022-10-10T03:00:24.794Z,10.60
2022-10-10T03:00:47.567Z,10.60
2022-10-10T03:01:10.915Z,10.60
2022-10-10T03:01:36.134Z,10.60
2022-10-10T03:01:59.117Z,10.60
2022-10-10T03:02:21.892Z,10.60
2022-10-10T03:02:46.683Z,10.60
2022-10-10T03:03:09.377Z,10.60
2022-10-10T03:03:32.092Z,10.60
2022-10-10T03:03:54.823Z,10.60
2022-10-10T03:04:17.761Z,10.60
2022-10-10T03:04:43.437Z,10.60
2022-10-10T03:05:06.601Z,10.60
2022-10-10T03:05:31.529Z,10.60
2022-10-10T03:05:54.337Z,10.60
2022-10-10T03:06:17.833Z,10.70
2022-10-10T03:06:40.502Z,10.60
2022-10-10T03:07:06.234Z,10.60
2022-10-10T03:07:29.056Z,10.70
2022-10-10T03:07:51.843Z,10.60
2022-10-10T03:08:14.553Z,10.60
2022-10-10T03:08:43.145Z,10.60
2022-10-10T03:09:05.872Z,10.60
2022-10-10T03:09:28.748Z,10.60
2022-10-10T03:09:51.860Z,10.60
2022-10-10T03:10:14.599Z,10.70
2022-10-10T03:10:37.286Z,10.60
2022-10-10T03:11:03.626Z,10.60
2022-10-10T03:11:26.305Z,10.60
2022-10-10T03:11:49.146Z,10.60
2022-10-10T03:12:11.886Z,10.70
2022-10-10T03:12:34.965Z,10.60
2022-10-10T03:12:57.757Z,10.60
2022-10-10T03:13:20.503Z,10.60
2022-10-10T03:13:43.180Z,10.60
2022-10-10T03:14:06.064Z,10.60
2022-10-10T03:14:28.790Z,10.60
2022-10-10T03:14:53.130Z,10.60
2022-10-10T03:15:16.004Z,10.60
2022-10-10T03:15:38.786Z,10.70
2022-10-10T03:16:02.441Z,10.70
2022-10-10T03:16:25.155Z,10.70
2022-10-10T03:16:47.945Z,10.70
2022-10-10T03:17:10.649Z,10.70
2022-10-10T03:17:33.473Z,10.70
2022-10-10T03:17:56.213Z,10.70
2022-10-10T03:18:21.611Z,10.70
2022-10-10T03:18:44.661Z,10.80
2022-10-10T03:19:08.850Z,10.70
2022-10-10T03:19:31.645Z,10.70
2022-10-10T03:19:54.396Z,10.70
2022-10-10T03:20:17.244Z,10.70
2022-10-10T03:20:39.900Z,10.70
2022-10-10T03:21:03.275Z,10.70
2022-10-10T03:21:26.076Z,10.70
2022-10-10T03:21:48.840Z,10.70
2022-10-10T03:22:11.605Z,10.70
2022-10-10T03:22:34.397Z,10.70
2022-10-10T03:22:57.166Z,10.70
2022-10-10T03:23:19.911Z,10.70
2022-10-10T03:23:42.567Z,10.70
2022-10-10T03:24:08.150Z,10.70
2022-10-10T03:24:30.895Z,10.70
2022-10-10T03:24:53.619Z,10.70
2022-10-10T03:25:16.505Z,10.80
2022-10-10T03:25:41.574Z,10.70
2022-10-10T03:26:04.481Z,10.80
2022-10-10T03:26:27.329Z,10.80
2022-10-10T03:26:50.190Z,10.70
2022-10-10T03:27:15.078Z,10.80
2022-10-10T03:27:37.825Z,10.80
2022-10-10T03:28:00.478Z,10.80
2022-10-10T03:28:23.338Z,10.80
2022-10-10T03:28:46.277Z,10.70
2022-10-10T03:29:09.085Z,10.80
2022-10-10T03:29:32.069Z,10.80
2022-10-10T03:29:56.304Z,10.80
2022-10-10T03:30:19.114Z,10.80
2022-10-10T03:30:41.874Z,10.80
2022-10-10T03:31:04.606Z,10.80
2022-10-10T03:31:27.364Z,10.80
2022-10-10T03:31:50.135Z,10.80
2022-10-10T03:32:12.974Z,10.80
2022-10-10T03:32:35.738Z,10.90
2022-10-10T03:32:58.433Z,10.90
2022-10-10T03:33:24.339Z,10.90
2022-10-10T03:33:47.104Z,10.90
2022-10-10T03:34:09.943Z,10.90
2022-10-10T03:34:32.882Z,10.90
2022-10-10T03:34:55.612Z,10.90
2022-10-10T03:35:18.345Z,10.90
2022-10-10T03:35:44.128Z,10.90
2022-10-10T03:36:07.249Z,10.90
2022-10-10T03:36:31.557Z,10.90
2022-10-10T03:36:54.715Z,10.90
2022-10-10T03:37:20.260Z,10.90
2022-10-10T03:37:42.985Z,10.80
2022-10-10T03:38:05.948Z,10.90
2022-10-10T03:38:28.704Z,10.90
2022-10-10T03:38:51.403Z,10.90
2022-10-10T03:39:14.182Z,10.80
2022-10-10T03:39:39.378Z,10.90
2022-10-10T03:40:02.054Z,10.90
2022-10-10T03:40:24.803Z,10.90
2022-10-10T03:40:47.558Z,11.00
2022-10-10T03:41:10.472Z,11.00
2022-10-10T03:41:33.283Z,10.90
2022-10-10T03:41:58.881Z,10.90
2022-10-10T03:42:21.592Z,10.90
2022-10-10T03:42:44.416Z,10.90
2022-10-10T03:43:10.849Z,10.90
2022-10-10T03:43:33.633Z,10.90
2022-10-10T03:43:59.359Z,10.80
2022-10-10T03:44:22.161Z,10.80
2022-10-10T03:44:44.865Z,10.80
2022-10-10T03:45:09.904Z,10.80
2022-10-10T03:45:32.674Z,10.90
2022-10-10T03:45:55.368Z,10.80
2022-10-10T03:46:18.155Z,10.80
2022-10-10T03:46:43.369Z,10.80
2022-10-10T03:47:06.311Z,10.90
2022-10-10T03:47:29.086Z,10.90
2022-10-10T03:47:51.791Z,10.80
2022-10-10T03:48:14.618Z,10.90
2022-10-10T03:48:39.855Z,10.90
2022-10-10T03:49:02.551Z,10.90
2022-10-10T03:49:25.316Z,11.00
2022-10-10T03:49:48.055Z,11.00
2022-10-10T03:50:10.750Z,11.00
2022-10-10T03:50:33.558Z,11.00
2022-10-10T03:50:58.891Z,11.00
2022-10-10T03:51:21.721Z,11.00
2022-10-10T03:51:44.476Z,11.00
2022-10-10T03:52:07.413Z,11.00
2022-10-10T03:52:30.185Z,11.00
2022-10-10T03:52:53.297Z,11.00
2022-10-10T03:53:16.426Z,11.00
2022-10-10T03:53:39.338Z,11.00
2022-10-10T03:54:02.123Z,11.00
2022-10-10T03:54:24.808Z,10.90
2022-10-10T03:54:47.546Z,10.90
2022-10-10T03:55:10.420Z,10.90
2022-10-10T03:55:33.201Z,10.90
2022-10-10T03:55:58.439Z,10.90
2022-10-10T03:56:21.250Z,10.90
2022-10-10T03:56:43.996Z,10.90
2022-10-10T03:57:06.781Z,10.90
2022-10-10T03:57:31.756Z,10.90
2022-10-10T03:57:54.573Z,10.90
2022-10-10T03:58:21.518Z,10.90
2022-10-10T03:58:46.888Z,10.90
2022-10-10T03:59:09.623Z,10.90
2022-10-10T03:59:32.343Z,10.90
2022-10-10T03:59:57.768Z,10.90
2022-10-10T04:00:22.024Z,10.90
2022-10-10T04:00:44.738Z,10.90
2022-10-10T04:01:07.646Z,11.00
2022-10-10T04:01:30.453Z,10.90
2022-10-10T04:01:53.178Z,11.00
2022-10-10T04:02:15.889Z,11.00
2022-10-10T04:02:38.813Z,11.00
2022-10-10T04:03:06.365Z,11.00
2022-10-10T04:03:29.137Z,11.00
2022-10-10T04:03:52.346Z,11.00
2022-10-10T04:04:15.552Z,10.90
2022-10-10T04:04:38.317Z,11.00
2022-10-10T04:05:01.011Z,10.90
2022-10-10T04:05:23.764Z,11.00
2022-10-10T04:05:46.475Z,11.00
2022-10-10T04:06:09.257Z,11.00
2022-10-10T04:06:32.522Z,11.00
2022-10-10T04:06:55.212Z,11.00
2022-10-10T04:07:17.899Z,11.00
2022-10-10T04:07:42.364Z,11.00
2022-10-10T04:08:05.217Z,11.00
2022-10-10T04:08:29.957Z,11.00
2022-10-10T04:08:52.625Z,11.00
2022-10-10T04:09:15.385Z,11.00
2022-10-10T04:09:38.067Z,11.00
2022-10-10T04:10:00.705Z,11.00
2022-10-10T04:10:23.446Z,11.00
2022-10-10T04:10:48.741Z,11.00
2022-10-10T04:11:11.488Z,11.00
2022-10-10T04:11:36.449Z,11.00
2022-10-10T04:11:59.880Z,11.00
2022-10-10T04:12:22.646Z,11.00
2022-10-10T04:12:45.381Z,11.00
2022-10-10T04:13:08.107Z,10.90
2022-10-10T04:13:30.805Z,10.90
2022-10-10T04:13:53.507Z,11.00
2022-10-10T04:14:19.078Z,11.00
2022-10-10T04:14:41.768Z,11.00
2022-10-10T04:15:05.180Z,11.00
2022-10-10T04:15:30.625Z,11.00
2022-10-10T04:15:53.410Z,11.00
2022-10-10T04:16:16.225Z,10.90
2022-10-10T04:16:38.925Z,11.00
2022-10-10T04:17:03.301Z,11.00
2022-10-10T04:17:26.335Z,11.00
2022-10-10T04:17:49.573Z,11.00
2022-10-10T04:18:12.699Z,11.00
2022-10-10T04:18:35.410Z,11.00
2022-10-10T04:18:58.105Z,11.00
2022-10-10T04:19:23.666Z,11.00
2022-10-10T04:19:46.495Z,11.00
2022-10-10T04:20:09.898Z,11.00
2022-10-10T04:20:32.653Z,11.00
2022-10-10T04:20:58.653Z,11.00
2022-10-10T04:21:21.731Z,11.00
2022-10-10T04:21:44.481Z,11.00
2022-10-10T04:22:10.962Z,11.00
2022-10-10T04:22:34.313Z,11.00
2022-10-10T04:22:57.098Z,11.00
2022-10-10T04:23:19.877Z,11.10
2022-10-10T04:23:42.863Z,11.10
2022-10-10T04:24:08.116Z,11.00
2022-10-10T04:24:30.887Z,11.00
2022-10-10T04:24:53.617Z,11.00
2022-10-10T04:25:16.481Z,11.00
2022-10-10T04:25:39.204Z,11.00
2022-10-10T04:26:01.916Z,11.00
2022-10-10T04:26:24.707Z,11.00
2022-10-10T04:26:49.552Z,11.10
2022-10-10T04:27:12.277Z,11.00
2022-10-10T04:27:35.048Z,11.00
2022-10-10T04:28:01.359Z,11.10
2022-10-10T04:28:24.609Z,11.10
2022-10-10T04:28:47.662Z,11.10
2022-10-10T04:29:10.402Z,11.10
2022-10-10T04:29:33.266Z,11.10
2022-10-10T04:29:55.962Z,11.10
2022-10-10T04:30:19.731Z,11.10
2022-10-10T04:30:44.081Z,11.20
2022-10-10T04:31:07.257Z,11.10
2022-10-10T04:31:30.069Z,11.20
2022-10-10T04:31:52.794Z,11.20
2022-10-10T04:32:15.646Z,11.20
2022-10-10T04:32:41.288Z,11.20
2022-10-10T04:33:04.032Z,11.20
2022-10-10T04:33:26.810Z,11.20
2022-10-10T04:33:49.572Z,11.20
2022-10-10T04:34:12.313Z,11.20
2022-10-10T04:34:35.033Z,11.20
2022-10-10T04:34:57.754Z,11.20
2022-10-10T04:35:20.479Z,11.20
2022-10-10T04:35:43.537Z,11.20
2022-10-10T04:36:06.558Z,11.20
2022-10-10T04:36:29.393Z,11.20
2022-10-10T04:36:52.068Z,11.20
2022-10-10T04:37:15.083Z,11.20
2022-10-10T04:37:37.783Z,11.20
2022-10-10T04:38:00.573Z,11.20
2022-10-10T04:38:23.228Z,11.20
2022-10-10T04:38:45.873Z,11.20
2022-10-10T04:39:09.342Z,11.20
2022-10-10T04:39:32.080Z,11.20
2022-10-10T04:39:54.874Z,11.20
2022-10-10T04:40:17.643Z,11.20
2022-10-10T04:40:40.628Z,11.20
2022-10-10T04:41:03.868Z,11.20
2022-10-10T04:41:26.608Z,11.20
2022-10-10T04:41:50.140Z,11.30
2022-10-10T04:42:12.923Z,11.30
2022-10-10T04:42:38.598Z,11.30
2022-10-10T04:43:01.298Z,11.30
2022-10-10T04:43:24.352Z,11.30
2022-10-10T04:43:47.050Z,11.30
2022-10-10T04:44:09.768Z,11.30
2022-10-10T04:44:32.543Z,11.30
2022-10-10T04:44:55.214Z,11.30
2022-10-10T04:45:18.588Z,11.30
2022-10-10T04:45:41.278Z,11.30
2022-10-10T04:46:05.805Z,11.30
2022-10-10T04:46:28.565Z,11.30
2022-10-10T04:46:54.328Z,11.30
2022-10-10T04:47:17.104Z,11.30
2022-10-10T04:47:39.860Z,11.30
2022-10-10T04:48:05.289Z,11.30
2022-10-10T04:48:27.995Z,11.30
2022-10-10T04:48:50.846Z,11.30
2022-10-10T04:49:13.577Z,11.30
2022-10-10T04:49:36.254Z,11.30
2022-10-10T04:50:02.105Z,11.30
2022-10-10T04:50:24.798Z,11.40
2022-10-10T04:50:52.210Z,11.40
2022-10-10T04:51:15.044Z,11.40
2022-10-10T04:51:37.906Z,11.40
2022-10-10T04:52:00.640Z,11.40
2022-10-10T04:52:23.370Z,11.40
2022-10-10T04:52:46.343Z,11.40
2022-10-10T04:53:09.044Z,11.40
2022-10-10T04:53:31.734Z,11.40
2022-10-10T04:53:54.455Z,11.40
2022-10-10T04:54:17.360Z,11.30
2022-10-10T04:54:40.195Z,11.30
2022-10-10T04:55:02.904Z,11.30
2022-10-10T04:55:25.655Z,11.30
2022-10-10T04:55:48.427Z,11.20
2022-10-10T04:56:11.109Z,11.20
2022-10-10T04:56:33.859Z,11.20
2022-10-10T04:56:56.597Z,11.20
2022-10-10T04:57:19.305Z,11.20
2022-10-10T04:57:42.000Z,11.20
2022-10-10T04:58:04.707Z,11.20
2022-10-10T04:58:27.450Z,11.20
2022-10-10T04:58:50.158Z,11.20
2022-10-10T04:59:12.957Z,11.20
2022-10-10T04:59:38.167Z,11.20
2022-10-10T05:00:00.898Z,11.20
2022-10-10T05:00:23.671Z,11.20
2022-10-10T05:00:46.405Z,11.10
2022-10-10T05:01:10.696Z,11.20
2022-10-10T05:01:33.546Z,11.10
2022-10-10T05:02:01.385Z,11.10
2022-10-10T05:02:24.611Z,11.10
2022-10-10T05:02:47.412Z,11.00
2022-10-10T05:03:12.852Z,11.00
2022-10-10T05:03:35.544Z,11.00
2022-10-10T05:04:01.030Z,10.90
2022-10-10T05:04:23.847Z,11.00
2022-10-10T05:04:46.617Z,10.90
2022-10-10T05:05:09.663Z,10.90
2022-10-10T05:05:32.412Z,10.90
2022-10-10T05:05:55.205Z,10.90
2022-10-10T05:06:17.997Z,10.90
2022-10-10T05:06:40.972Z,10.90
2022-10-10T05:07:03.763Z,10.90
2022-10-10T05:07:26.588Z,10.90
2022-10-10T05:07:55.525Z,10.90
2022-10-10T05:08:18.777Z,10.90
2022-10-10T05:08:41.507Z,10.90
2022-10-10T05:09:07.511Z,10.90
2022-10-10T05:09:30.357Z,10.90
2022-10-10T05:09:53.117Z,10.90
2022-10-10T05:10:18.554Z,10.90
2022-10-10T05:10:41.275Z,10.90
2022-10-10T05:11:04.078Z,11.00
2022-10-10T05:11:26.765Z,11.00
2022-10-10T05:11:49.537Z,11.00
2022-10-10T05:12:12.260Z,11.00